Time;durP1;ratioP1;P1;durP2;ratioP2;P2;SDS_P1;SDS_P2;PMS_P1;PMS_P2;Temp;Humidity;BMP_temperature;BMP_pressure;BME280_temperature;BME280_humidity;BME280_pressure;Samples;Min_cycle;Max_cycle;Signal;HPM_P1;HPM_P2
2023/04/21 00:01:07;;;;;;;0.50;0.30;;;;;;;16.22;77.71;99567.96;108150;1283;21987;-60
2023/04/21 00:03:36;;;;;;;0.90;0.30;;;;;;;16.21;77.62;99570.48;108328;1284;21981;-61
2023/04/21 00:06:05;;;;;;;1.80;0.60;;;;;;;16.20;77.70;99571.21;108230;1284;21992;-61
2023/04/21 00:08:31;;;;;;;0.90;0.40;;;;;;;16.20;77.53;99572.64;108270;1283;22626;-61
2023/04/21 00:10:57;;;;;;;2.20;0.70;;;;;;;16.19;77.53;99573.38;108281;1284;22002;-61
2023/04/21 00:13:23;;;;;;;2.30;0.70;;;;;;;16.17;77.58;99572.41;108221;1284;21948;-62
2023/04/21 00:15:50;;;;;;;1.40;0.60;;;;;;;16.14;77.25;99572.96;108219;1284;21997;-62
2023/04/21 00:18:18;;;;;;;1.40;0.80;;;;;;;16.11;77.33;99571.87;108236;1284;23710;-61
2023/04/21 00:20:44;;;;;;;0.90;0.60;;;;;;;16.08;77.37;99568.98;108186;1284;22002;-61
2023/04/21 00:23:10;;;;;;;2.20;0.80;;;;;;;16.04;77.72;99563.66;108309;1284;21985;-61
2023/04/21 00:25:36;;;;;;;1.20;0.90;;;;;;;16.01;77.42;99562.23;108314;1284;21987;-61
2023/04/21 00:28:01;;;;;;;1.80;0.90;;;;;;;16.00;77.81;99558.23;108308;1283;21991;-61
2023/04/21 00:30:27;;;;;;;2.50;1.00;;;;;;;15.99;77.80;99558.44;108263;1284;21979;-61
2023/04/21 00:32:53;;;;;;;1.40;0.80;;;;;;;15.94;77.70;99551.94;108164;1284;21992;-61
2023/04/21 00:35:19;;;;;;;2.60;0.70;;;;;;;15.91;77.90;99553.70;108151;1284;21996;-61
2023/04/21 00:37:44;;;;;;;3.50;0.90;;;;;;;15.88;78.23;99554.20;108136;1284;21993;-61
2023/04/21 00:40:10;;;;;;;1.40;0.80;;;;;;;15.86;78.14;99553.03;108165;1284;21986;-62
2023/04/21 00:42:37;;;;;;;1.50;1.00;;;;;;;15.85;78.30;99554.11;108254;1284;22449;-61
2023/04/21 00:45:03;;;;;;;2.30;1.20;;;;;;;15.83;78.23;99551.36;108225;1283;21988;-61
2023/04/21 00:47:30;;;;;;;2.40;1.00;;;;;;;15.82;78.35;99550.00;108325;1284;21995;-62
2023/04/21 00:49:57;;;;;;;1.90;0.90;;;;;;;15.83;78.33;99550.69;108244;1284;21987;-61
2023/04/21 00:52:23;;;;;;;3.50;1.30;;;;;;;15.84;78.33;99549.38;108183;1284;21983;-61
2023/04/21 00:54:48;;;;;;;2.00;1.20;;;;;;;15.86;78.43;99550.55;108145;1284;23702;-61
2023/04/21 00:57:16;;;;;;;1.80;1.10;;;;;;;15.87;78.44;99548.40;108194;1284;21987;-61
2023/04/21 00:59:42;;;;;;;4.80;1.30;;;;;;;15.88;78.42;99543.92;108194;1283;21986;-61
2023/04/21 01:02:11;;;;;;;3.30;2.20;;;;;;;15.89;78.42;99545.28;108219;1283;21989;-62
2023/04/21 01:04:39;;;;;;;3.20;1.60;;;;;;;15.90;78.39;99543.46;108228;1284;21995;-60
2023/04/21 01:07:05;;;;;;;2.60;1.40;;;;;;;15.89;78.48;99541.05;108190;1284;22043;-62
2023/04/21 01:09:33;;;;;;;3.70;1.60;;;;;;;15.87;78.58;99542.90;108213;1284;21986;-61
2023/04/21 01:12:08;;;;;;;3.30;1.50;;;;;;;15.85;78.86;99545.45;108169;1284;21990;-61
2023/04/21 01:14:35;;;;;;;4.10;1.60;;;;;;;15.83;78.79;99542.16;108262;1284;22020;-62
2023/04/21 01:17:04;;;;;;;5.70;1.80;;;;;;;15.84;78.53;99543.20;108236;1284;21997;-61
2023/04/21 01:19:33;;;;;;;3.90;1.60;;;;;;;15.85;78.78;99544.74;108222;1284;21984;-61
2023/04/21 01:21:59;;;;;;;5.10;1.80;;;;;;;15.84;78.80;99540.16;108273;1284;22946;-61
2023/04/21 01:24:42;;;;;;;5.70;1.80;;;;;;;15.82;78.80;99539.23;108268;1283;21986;-61
2023/04/21 01:27:09;;;;;;;3.30;2.00;;;;;;;15.80;79.24;99542.66;108237;1284;22008;-61
2023/04/21 01:29:34;;;;;;;5.40;2.20;;;;;;;15.78;79.18;99543.12;108274;1284;22086;-61
2023/04/21 01:32:25;;;;;;;5.90;2.60;;;;;;;15.78;79.06;99542.25;108130;1284;21989;-61
2023/04/21 01:34:50;;;;;;;3.30;1.70;;;;;;;15.81;79.11;99542.30;108168;1284;21993;-62
2023/04/21 01:37:18;;;;;;;3.30;1.90;;;;;;;15.82;79.42;99540.29;108239;1284;21992;-61
2023/04/21 01:39:46;;;;;;;4.60;2.20;;;;;;;15.82;79.53;99539.23;108222;1284;21998;-61
2023/04/21 01:42:12;;;;;;;5.50;2.30;;;;;;;15.82;79.35;99538.14;108195;1284;22023;-61
2023/04/21 01:44:38;;;;;;;5.40;1.80;;;;;;;15.83;79.28;99538.45;108293;1284;21991;-61
2023/04/21 01:47:04;;;;;;;4.70;2.20;;;;;;;15.85;79.35;99538.02;108216;1284;23455;-63
2023/04/21 01:49:30;;;;;;;4.40;2.30;;;;;;;15.86;79.55;99537.10;108307;1284;21989;-62
2023/04/21 01:51:56;;;;;;;9.00;2.30;;;;;;;15.87;79.43;99537.92;108177;1284;22080;-61
2023/04/21 01:54:21;;;;;;;3.30;2.10;;;;;;;15.87;79.38;99536.34;108118;1284;21990;-61
2023/04/21 01:56:47;;;;;;;5.20;2.60;;;;;;;15.87;79.37;99534.75;108149;1284;21983;-60
2023/04/21 01:59:13;;;;;;;4.00;2.20;;;;;;;15.89;79.33;99533.98;108148;1285;21998;-59
2023/04/21 02:01:38;;;;;;;4.30;2.10;;;;;;;15.87;79.47;99535.11;108114;1283;21988;-60
2023/04/21 02:04:04;;;;;;;4.00;2.10;;;;;;;15.86;80.01;99535.14;108235;1284;21985;-60
2023/04/21 02:06:30;;;;;;;5.60;2.10;;;;;;;15.85;79.93;99535.17;108194;1284;21982;-61
2023/04/21 02:08:57;;;;;;;3.90;2.00;;;;;;;15.84;79.57;99533.80;108219;1284;21982;-60
2023/04/21 02:11:24;;;;;;;4.70;2.50;;;;;;;15.84;79.79;99532.92;108199;1284;21997;-60
2023/04/21 02:13:54;;;;;;;3.70;1.80;;;;;;;15.82;80.12;99534.80;108217;1284;22003;-60
2023/04/21 02:16:20;;;;;;;4.00;2.20;;;;;;;15.79;79.63;99534.77;108132;1284;21973;-60
2023/04/21 02:18:47;;;;;;;4.10;1.80;;;;;;;15.78;79.64;99532.69;108135;1284;21988;-60
2023/04/21 02:21:13;;;;;;;5.10;2.10;;;;;;;15.79;79.80;99534.08;108187;1284;21996;-60
2023/04/21 02:23:38;;;;;;;3.50;1.90;;;;;;;15.81;79.79;99533.27;108262;1284;21986;-60
2023/04/21 02:26:04;;;;;;;5.80;2.00;;;;;;;15.83;79.60;99535.13;108209;1284;23811;-60
2023/04/21 02:28:30;;;;;;;5.50;2.10;;;;;;;15.80;79.66;99532.94;108215;1283;22955;-60
2023/04/21 02:30:56;;;;;;;5.30;2.50;;;;;;;15.78;79.54;99534.25;108190;1284;21986;-60
2023/04/21 02:33:22;;;;;;;4.40;2.30;;;;;;;15.76;79.66;99534.90;108248;1284;22001;-60
2023/04/21 02:35:47;;;;;;;6.80;2.40;;;;;;;15.73;79.56;99532.91;108143;1284;21989;-60
2023/04/21 02:38:13;;;;;;;5.70;2.10;;;;;;;15.72;79.71;99533.67;108142;1284;22001;-61
2023/04/21 02:40:39;;;;;;;5.10;2.40;;;;;;;15.71;79.66;99535.11;108239;1284;22029;-60
2023/04/21 02:43:05;;;;;;;4.30;2.20;;;;;;;15.73;79.53;99532.18;108126;1284;22064;-61
2023/04/21 02:45:31;;;;;;;3.60;2.00;;;;;;;15.74;79.75;99533.20;108222;1283;21996;-59
2023/04/21 02:47:58;;;;;;;4.30;2.40;;;;;;;15.74;79.45;99530.93;108289;1283;21985;-60
2023/04/21 02:50:24;;;;;;;5.30;2.40;;;;;;;15.72;79.43;99534.23;108297;1283;21991;-60
2023/04/21 02:52:50;;;;;;;6.20;2.60;;;;;;;15.69;79.49;99530.79;108315;1283;21988;-60
2023/04/21 02:55:15;;;;;;;5.00;2.10;;;;;;;15.68;79.50;99529.76;108312;1283;21988;-60
2023/04/21 02:57:41;;;;;;;6.80;2.90;;;;;;;15.66;79.49;99530.07;108233;1283;21988;-59
2023/04/21 03:00:10;;;;;;;5.50;2.70;;;;;;;15.64;79.67;99528.93;108329;1283;22158;-60
2023/04/21 03:02:37;;;;;;;4.80;2.40;;;;;;;15.61;79.61;99529.77;108270;1279;21991;-60
2023/04/21 03:05:03;;;;;;;6.40;2.30;;;;;;;15.57;79.84;99530.29;108224;1283;21985;-60
2023/04/21 03:07:29;;;;;;;6.70;3.40;;;;;;;15.55;79.71;99534.83;108122;1283;158945;-60
2023/04/21 03:09:56;;;;;;;5.50;2.90;;;;;;;15.51;79.81;99535.90;108189;1283;21996;-61
2023/04/21 03:12:22;;;;;;;5.80;2.80;;;;;;;15.47;79.66;99537.66;108290;1283;21987;-60
2023/04/21 03:14:48;;;;;;;5.80;2.80;;;;;;;15.44;79.76;99541.48;108245;1283;22010;-60
2023/04/21 03:17:13;;;;;;;8.10;3.30;;;;;;;15.42;79.67;99544.09;108274;1280;22027;-60
2023/04/21 03:19:39;;;;;;;5.80;3.00;;;;;;;15.41;79.60;99547.84;108300;1275;21983;-61
2023/04/21 03:22:05;;;;;;;5.80;3.00;;;;;;;15.40;79.83;99550.35;108263;1283;21989;-60
2023/04/21 03:24:31;;;;;;;6.30;2.80;;;;;;;15.39;79.86;99548.63;108293;1283;21986;-60
2023/04/21 03:26:57;;;;;;;5.70;3.10;;;;;;;15.37;79.70;99550.64;108262;1282;23679;-60
2023/04/21 03:29:22;;;;;;;8.00;3.40;;;;;;;15.35;80.06;99550.73;107458;1278;1002350;-60
2023/04/21 03:31:48;;;;;;;7.70;3.60;;;;;;;15.33;79.94;99552.78;108255;1283;22021;-60
2023/04/21 03:34:14;;;;;;;6.30;3.50;;;;;;;15.31;79.84;99555.67;108248;1283;21995;-61
2023/04/21 03:36:42;;;;;;;5.80;3.60;;;;;;;15.33;79.57;99559.14;108303;1283;21998;-59
2023/04/21 03:39:08;;;;;;;6.40;3.10;;;;;;;15.38;79.78;99563.55;108228;1283;21984;-59
2023/04/21 03:41:34;;;;;;;6.30;3.60;;;;;;;15.41;79.72;99565.00;108246;1283;23615;-61
2023/04/21 03:43:59;;;;;;;7.30;3.70;;;;;;;15.43;79.69;99565.77;108269;1282;22628;-59
2023/04/21 03:46:25;;;;;;;6.80;4.10;;;;;;;15.43;79.56;99568.23;108259;1283;21960;-59
2023/04/21 03:48:50;;;;;;;5.60;3.30;;;;;;;15.41;79.75;99564.24;108264;1283;21996;-60
2023/04/21 03:51:16;;;;;;;5.00;3.30;;;;;;;15.39;79.69;99567.02;108235;1280;21987;-60
2023/04/21 03:53:42;;;;;;;6.00;3.40;;;;;;;15.39;79.38;99566.80;108295;1283;24404;-60
2023/04/21 03:56:10;;;;;;;7.60;3.30;;;;;;;15.41;79.65;99567.98;108233;1283;21986;-60
2023/04/21 03:58:36;;;;;;;6.00;3.50;;;;;;;15.43;79.74;99568.60;108245;1283;21985;-61
2023/04/21 04:01:04;;;;;;;6.00;3.60;;;;;;;15.42;79.84;99568.27;108214;1283;22439;-60
2023/04/21 04:03:29;;;;;;;7.10;3.70;;;;;;;15.41;79.69;99570.63;108317;1283;21983;-61
2023/04/21 04:05:55;;;;;;;6.20;3.60;;;;;;;15.42;79.64;99568.83;108258;1282;21987;-60
2023/04/21 04:08:21;;;;;;;6.20;3.70;;;;;;;15.44;79.59;99573.30;108346;1283;22005;-61
2023/04/21 04:10:50;;;;;;;8.50;3.60;;;;;;;15.48;79.51;99575.95;108260;1283;21990;-61
2023/04/21 04:13:17;;;;;;;6.20;3.50;;;;;;;15.50;79.52;99577.98;108289;1283;22013;-61
2023/04/21 04:15:43;;;;;;;5.30;3.00;;;;;;;15.51;79.32;99580.25;108293;1283;21973;-61
2023/04/21 04:18:09;;;;;;;5.70;3.30;;;;;;;15.50;79.25;99580.11;108268;1283;21991;-61
2023/04/21 04:20:35;;;;;;;5.80;3.20;;;;;;;15.49;79.30;99581.75;108208;1282;21995;-62
2023/04/21 04:23:01;;;;;;;6.70;3.50;;;;;;;15.49;79.11;99582.47;108353;1283;21983;-60
2023/04/21 04:25:27;;;;;;;5.30;3.00;;;;;;;15.47;79.07;99583.44;108352;1283;21989;-60
2023/04/21 04:27:53;;;;;;;6.40;3.60;;;;;;;15.46;78.90;99585.78;108258;1283;21988;-61
2023/04/21 04:30:18;;;;;;;6.70;3.20;;;;;;;15.46;79.03;99586.48;108233;1283;21992;-61
2023/04/21 04:32:44;;;;;;;9.60;3.40;;;;;;;15.45;79.02;99588.13;108292;1283;21988;-60
2023/04/21 04:35:11;;;;;;;6.40;2.80;;;;;;;15.46;79.04;99588.79;106777;1283;1002536;-61
2023/04/21 04:37:38;;;;;;;8.80;3.00;;;;;;;15.45;78.98;99587.95;108252;1283;21984;-60
2023/04/21 04:40:14;;;;;;;6.50;3.00;;;;;;;15.45;78.87;99588.81;108199;1283;21983;-61
2023/04/21 04:42:41;;;;;;;5.20;3.10;;;;;;;15.48;79.01;99591.72;108234;1283;23722;-60
2023/04/21 04:45:10;;;;;;;8.60;3.20;;;;;;;15.49;79.14;99591.33;108283;1283;22001;-61
2023/04/21 04:47:36;;;;;;;7.70;3.00;;;;;;;15.48;79.63;99591.87;108355;1282;21983;-61
2023/04/21 04:50:03;;;;;;;7.70;3.10;;;;;;;15.49;79.31;99593.60;108282;1283;21987;-61
2023/04/21 04:52:29;;;;;;;8.10;3.60;;;;;;;15.50;79.44;99593.02;108247;1282;22018;-60
2023/04/21 04:54:55;;;;;;;6.80;3.40;;;;;;;15.50;79.49;99594.96;108227;1283;23543;-60
2023/04/21 04:57:20;;;;;;;6.30;3.20;;;;;;;15.50;79.61;99593.35;108276;1283;21986;-60
2023/04/21 04:59:46;;;;;;;6.00;3.10;;;;;;;15.51;79.46;99592.61;108266;1280;23087;-59
2023/04/21 05:02:11;;;;;;;9.00;3.30;;;;;;;15.52;79.29;99593.64;108238;1282;21986;-60
2023/04/21 05:04:37;;;;;;;5.80;3.10;;;;;;;15.51;78.85;99595.25;108294;1282;21982;-61
2023/04/21 05:07:05;;;;;;;8.20;3.00;;;;;;;15.48;79.30;99594.35;108288;1283;21989;-60
2023/04/21 05:09:31;;;;;;;7.00;2.70;;;;;;;15.44;79.51;99593.47;108315;1282;21981;-60
2023/04/21 05:11:56;;;;;;;9.40;3.50;;;;;;;15.43;79.40;99595.10;108284;1283;21986;-60
2023/04/21 05:14:22;;;;;;;4.90;2.40;;;;;;;15.45;79.37;99595.54;108304;1283;21983;-60
2023/04/21 05:16:47;;;;;;;4.50;2.30;;;;;;;15.48;79.51;99595.60;108321;1283;21989;-60
2023/04/21 05:19:13;;;;;;;5.10;2.60;;;;;;;15.49;79.66;99594.48;108268;1283;21991;-60
2023/04/21 05:21:39;;;;;;;6.30;2.20;;;;;;;15.49;79.31;99596.60;108237;1283;21998;-60
2023/04/21 05:24:05;;;;;;;4.90;2.20;;;;;;;15.47;78.98;99594.77;108304;1283;21989;-60
2023/04/21 05:26:31;;;;;;;5.10;2.10;;;;;;;15.44;78.71;99597.52;108212;1283;21993;-60
2023/04/21 05:28:57;;;;;;;3.60;1.80;;;;;;;15.44;78.84;99595.26;108214;1283;21982;-60
2023/04/21 05:31:23;;;;;;;4.50;2.00;;;;;;;15.44;78.66;99598.80;108235;1283;22754;-60
2023/04/21 05:33:49;;;;;;;5.50;1.70;;;;;;;15.41;78.68;99598.41;108280;1283;22028;-60
2023/04/21 05:36:14;;;;;;;3.50;1.60;;;;;;;15.40;78.63;99599.67;108220;1283;21988;-60
2023/04/21 05:38:41;;;;;;;3.80;1.70;;;;;;;15.39;78.48;99600.23;108151;1283;21996;-60
2023/04/21 05:41:07;;;;;;;4.30;1.70;;;;;;;15.39;78.82;99599.70;108254;1283;21988;-60
2023/04/21 05:43:34;;;;;;;3.00;1.50;;;;;;;15.39;78.93;99600.41;108359;1283;21980;-60
2023/04/21 05:46:00;;;;;;;3.60;1.50;;;;;;;15.38;78.95;99598.02;108231;1283;22153;-61
2023/04/21 05:48:27;;;;;;;5.30;1.90;;;;;;;15.36;78.88;99600.88;108262;1282;21988;-60
2023/04/21 05:50:54;;;;;;;5.20;1.60;;;;;;;15.35;79.01;99596.54;108432;1282;22024;-60
2023/04/21 05:53:22;;;;;;;3.10;1.60;;;;;;;15.31;79.09;99598.63;108432;1282;21983;-60
2023/04/21 05:55:48;;;;;;;3.90;1.60;;;;;;;15.30;79.00;99600.10;108404;1282;21980;-60
2023/04/21 05:58:13;;;;;;;2.90;1.60;;;;;;;15.31;79.31;99600.58;108413;1282;21982;-60
2023/04/21 06:00:39;;;;;;;4.00;1.60;;;;;;;15.34;79.28;99599.93;108432;1283;21980;-60
2023/04/21 06:03:05;;;;;;;4.20;1.80;;;;;;;15.35;79.66;99598.84;108427;1283;21976;-61
2023/04/21 06:05:31;;;;;;;3.30;1.40;;;;;;;15.37;79.34;99601.40;108406;1280;22448;-60
2023/04/21 06:07:57;;;;;;;8.10;6.60;;;;;;;15.34;79.63;99599.59;108436;1283;21983;-60
2023/04/21 06:10:23;;;;;;;4.20;2.00;;;;;;;15.32;79.47;99604.96;108362;1283;21975;-60
2023/04/21 06:12:48;;;;;;;4.40;1.80;;;;;;;15.35;79.46;99606.24;108295;1283;22004;-61
2023/04/21 06:15:14;;;;;;;3.90;1.80;;;;;;;15.38;79.71;99605.24;108391;1283;21976;-60
2023/04/21 06:17:40;;;;;;;6.30;2.00;;;;;;;15.38;79.92;99608.06;108386;1282;22014;-60
2023/04/21 06:20:07;;;;;;;3.60;2.20;;;;;;;15.40;80.03;99609.58;108335;1282;21991;-60
2023/04/21 06:22:33;;;;;;;5.60;2.40;;;;;;;15.41;79.74;99610.04;108393;1283;22083;-60
2023/04/21 06:24:58;;;;;;;4.00;1.40;;;;;;;15.41;79.47;99614.27;108403;1283;22074;-61
2023/04/21 06:27:24;;;;;;;3.40;1.50;;;;;;;15.42;79.40;99617.77;108409;1283;21992;-60
2023/04/21 06:29:53;;;;;;;5.00;1.20;;;;;;;15.44;79.63;99617.68;108422;1282;21992;-61
2023/04/21 06:32:19;;;;;;;4.00;1.50;;;;;;;15.48;79.58;99617.13;108388;1282;21985;-61
2023/04/21 06:34:44;;;;;;;2.10;1.30;;;;;;;15.53;79.16;99615.50;108391;1282;22008;-61
2023/04/21 06:37:13;;;;;;;3.30;1.10;;;;;;;15.57;78.98;99616.22;108398;1282;22098;-61
2023/04/21 06:39:39;;;;;;;4.80;1.30;;;;;;;15.59;79.22;99618.43;108417;1283;22008;-61
2023/04/21 06:42:04;;;;;;;5.00;1.70;;;;;;;15.60;79.38;99620.84;108409;1283;22040;-62
2023/04/21 06:44:31;;;;;;;4.40;1.90;;;;;;;15.62;79.11;99620.27;108414;1282;21982;-61
2023/04/21 06:46:57;;;;;;;4.90;1.30;;;;;;;15.64;78.79;99621.04;108387;1283;21996;-62
2023/04/21 06:49:22;;;;;;;5.00;1.70;;;;;;;15.66;78.78;99626.27;108392;1283;22448;-60
2023/04/21 06:51:48;;;;;;;2.30;1.00;;;;;;;15.67;78.61;99626.91;108408;1283;21989;-61
2023/04/21 06:54:14;;;;;;;8.00;3.60;;;;;;;15.67;78.57;99630.30;108397;1282;22171;-60
2023/04/21 06:56:41;;;;;;;9.30;5.80;;;;;;;15.67;78.45;99632.25;108451;1283;21980;-60
2023/04/21 06:59:08;;;;;;;7.90;4.20;;;;;;;15.63;78.20;99631.34;108413;1282;21984;-61
2023/04/21 07:01:34;;;;;;;3.40;2.00;;;;;;;15.53;78.66;99635.31;108393;1283;21992;-62
2023/04/21 07:04:00;;;;;;;5.20;3.00;;;;;;;15.52;78.84;99634.50;108411;1283;21982;-61
2023/04/21 07:06:26;;;;;;;3.30;2.00;;;;;;;15.58;78.27;99635.64;108410;1283;21991;-61
2023/04/21 07:08:51;;;;;;;5.00;1.90;;;;;;;15.59;78.05;99639.48;108391;1283;22000;-60
2023/04/21 07:11:18;;;;;;;5.90;2.50;;;;;;;15.61;78.26;99639.02;108412;1282;22020;-62
2023/04/21 07:13:43;;;;;;;4.50;2.50;;;;;;;15.61;78.27;99638.17;108458;1282;21983;-60
2023/04/21 07:16:09;;;;;;;11.60;7.30;;;;;;;15.58;78.16;99637.19;108385;1283;22169;-62
2023/04/21 07:18:35;;;;;;;27.80;15.30;;;;;;;15.59;78.05;99639.66;108309;1283;21993;-61
2023/04/21 07:21:00;;;;;;;12.40;8.30;;;;;;;15.58;77.98;99642.54;108234;1283;22000;-62
2023/04/21 07:23:26;;;;;;;4.40;3.30;;;;;;;15.56;77.69;99642.09;108256;1283;21978;-61
2023/04/21 07:25:52;;;;;;;5.80;2.00;;;;;;;15.57;77.73;99645.41;108237;1280;21991;-61
2023/04/21 07:28:17;;;;;;;4.90;2.00;;;;;;;15.53;77.07;99645.95;108291;1283;21991;-61
2023/04/21 07:30:43;;;;;;;6.00;1.70;;;;;;;15.50;77.13;99648.70;108279;1283;21994;-61
2023/04/21 07:33:09;;;;;;;5.20;1.80;;;;;;;15.50;77.10;99648.73;107585;1282;1002604;-61
2023/04/21 07:35:35;;;;;;;3.90;1.70;;;;;;;15.52;77.19;99649.35;108337;1283;21985;-62
2023/04/21 07:38:02;;;;;;;5.50;1.90;;;;;;;15.53;77.20;99651.23;108416;1282;21984;-61
2023/04/21 07:40:29;;;;;;;6.90;3.10;;;;;;;15.56;77.19;99651.45;108355;1283;21988;-61
2023/04/21 07:42:55;;;;;;;12.10;5.20;;;;;;;15.59;77.60;99652.58;108317;1283;21996;-60
2023/04/21 07:45:21;;;;;;;9.50;4.30;;;;;;;15.63;77.53;99652.39;108274;1283;22263;-63
2023/04/21 07:47:47;;;;;;;13.80;6.60;;;;;;;15.69;77.72;99648.92;108216;1283;21996;-61
2023/04/21 07:50:12;;;;;;;8.20;4.30;;;;;;;15.78;78.37;99649.96;108221;1283;22001;-61
2023/04/21 07:52:38;;;;;;;7.20;2.60;;;;;;;15.88;78.52;99653.08;108352;1283;21992;-61
2023/04/21 07:55:05;;;;;;;19.60;10.10;;;;;;;15.97;78.36;99653.20;108289;1283;21953;-61
2023/04/21 07:57:33;;;;;;;6.50;3.20;;;;;;;15.96;77.96;99655.70;108301;1283;21982;-62
2023/04/21 07:59:59;;;;;;;12.60;3.40;;;;;;;15.89;77.45;99660.09;108323;1283;23549;-61
2023/04/21 08:02:24;;;;;;;10.90;3.00;;;;;;;15.79;77.13;99663.70;108247;1279;21989;-61
2023/04/21 08:04:50;;;;;;;13.10;4.30;;;;;;;15.72;77.35;99661.73;108295;1283;21992;-61
2023/04/21 08:07:15;;;;;;;11.00;5.20;;;;;;;15.66;77.84;99660.42;108259;1283;22455;-61
2023/04/21 08:09:41;;;;;;;12.70;4.60;;;;;;;15.61;77.45;99662.55;108218;1283;22370;-63
2023/04/21 08:12:07;;;;;;;9.00;3.20;;;;;;;15.61;77.68;99664.15;108258;1283;22170;-62
2023/04/21 08:14:33;;;;;;;10.20;2.80;;;;;;;15.58;77.68;99665.13;108207;1283;21983;-61
2023/04/21 08:16:59;;;;;;;7.00;2.70;;;;;;;15.56;77.35;99661.17;107499;1283;1002804;-61
2023/04/21 08:19:25;;;;;;;9.30;3.60;;;;;;;15.58;77.46;99660.55;108445;1283;22021;-61
2023/04/21 08:21:51;;;;;;;6.90;2.60;;;;;;;15.61;77.65;99661.85;108376;1282;22077;-61
2023/04/21 08:24:16;;;;;;;11.30;4.40;;;;;;;15.61;77.56;99663.98;108396;1282;21991;-61
2023/04/21 08:26:42;;;;;;;17.30;5.90;;;;;;;15.59;77.47;99668.30;108255;1283;21986;-63
2023/04/21 08:29:09;;;;;;;11.80;5.10;;;;;;;15.57;77.54;99667.48;108294;1283;22021;-62
2023/04/21 08:31:37;;;;;;;8.00;3.50;;;;;;;15.54;77.68;99669.92;108351;1283;22198;-61
2023/04/21 08:34:03;;;;;;;8.90;3.60;;;;;;;15.54;77.51;99671.52;108357;1283;21992;-61
2023/04/21 08:36:29;;;;;;;9.70;3.50;;;;;;;15.54;77.20;99676.14;108286;1283;21993;-62
2023/04/21 08:38:55;;;;;;;6.40;3.50;;;;;;;15.42;77.50;99676.65;108273;1283;21982;-61
2023/04/21 08:41:20;;;;;;;9.00;3.50;;;;;;;15.34;77.41;99675.22;108377;1283;21985;-63
2023/04/21 08:43:46;;;;;;;7.30;3.50;;;;;;;15.30;77.29;99675.73;108279;1283;21994;-61
2023/04/21 08:46:12;;;;;;;9.60;3.20;;;;;;;15.36;77.22;99677.80;108293;1283;21996;-62
2023/04/21 08:48:38;;;;;;;8.20;2.80;;;;;;;15.43;76.81;99680.29;108417;1282;21983;-62
2023/04/21 08:51:08;;;;;;;8.10;2.90;;;;;;;15.45;76.47;99678.47;108279;1283;22104;-62
2023/04/21 08:53:35;;;;;;;;;;;;;;;15.46;76.27;99673.98;108300;1284;21963;-62
2023/04/21 08:56:01;;;;;;;6.50;2.70;;;;;;;15.47;76.18;99671.63;108279;1283;21987;-62
2023/04/21 08:58:27;;;;;;;9.00;2.60;;;;;;;15.49;76.17;99672.62;108249;1284;21982;-62
2023/04/21 09:00:52;;;;;;;7.90;2.60;;;;;;;15.48;75.59;99678.16;108292;1283;21987;-60
2023/04/21 09:03:22;;;;;;;7.50;3.10;;;;;;;15.49;75.83;99681.98;108333;1283;21983;-61
2023/04/21 09:06:04;;;;;;;11.60;6.20;;;;;;;15.50;76.07;99677.88;108351;1283;21986;-61
2023/04/21 09:08:31;;;;;;;15.80;8.20;;;;;;;15.51;75.92;99676.27;108363;1283;21983;-62
2023/04/21 09:10:57;;;;;;;7.30;3.50;;;;;;;15.48;75.42;99675.14;108310;1283;21990;-62
2023/04/21 09:13:31;;;;;;;8.30;3.20;;;;;;;15.49;75.42;99673.51;108303;1283;21991;-62
2023/04/21 09:15:56;;;;;;;6.10;2.50;;;;;;;15.52;75.80;99671.29;108249;1282;21986;-62
2023/04/21 09:18:24;;;;;;;4.50;2.20;;;;;;;15.57;76.26;99672.28;108247;1283;21984;-61
2023/04/21 09:20:51;;;;;;;6.90;2.50;;;;;;;15.63;76.24;99666.20;108304;1283;22107;-61
2023/04/21 09:23:17;;;;;;;7.40;2.00;;;;;;;15.66;76.00;99664.84;108325;1283;23655;-62
2023/04/21 09:25:43;;;;;;;5.30;2.00;;;;;;;15.71;76.32;99665.48;108258;1283;22498;-61
2023/04/21 09:28:10;;;;;;;5.70;2.10;;;;;;;15.77;76.69;99665.55;108292;1283;21993;-63
2023/04/21 09:30:37;;;;;;;8.30;2.00;;;;;;;15.81;76.34;99666.27;108292;1283;22510;-61
2023/04/21 09:33:02;;;;;;;7.70;1.70;;;;;;;15.85;75.59;99663.96;108428;1282;21995;-62
2023/04/21 09:35:29;;;;;;;9.60;2.30;;;;;;;15.89;75.03;99662.94;108368;1282;21953;-62
2023/04/21 09:37:55;;;;;;;6.70;2.60;;;;;;;15.80;74.54;99664.01;108161;1283;22007;-60
2023/04/21 09:40:21;;;;;;;7.20;2.20;;;;;;;15.72;74.04;99666.11;108286;1283;21985;-60
2023/04/21 09:42:46;;;;;;;10.30;2.50;;;;;;;15.67;74.05;99664.92;108270;1283;21989;-61
2023/04/21 09:45:16;;;;;;;9.70;2.20;;;;;;;15.64;73.96;99661.19;108318;1283;24352;-60
2023/04/21 09:47:42;;;;;;;8.00;2.40;;;;;;;15.59;73.87;99661.05;108295;1283;23776;-60
2023/04/21 09:50:12;;;;;;;8.40;1.90;;;;;;;15.59;74.00;99658.04;108303;1283;22046;-60
2023/04/21 09:52:39;;;;;;;8.00;2.20;;;;;;;15.60;74.42;99659.23;108243;1283;21979;-62
2023/04/21 09:55:09;;;;;;;5.80;1.90;;;;;;;15.62;74.52;99658.08;108406;1281;21991;-62
2023/04/21 09:57:37;;;;;;;7.30;2.20;;;;;;;15.67;74.86;99659.99;108320;1276;21987;-63
2023/04/21 10:00:07;;;;;;;11.30;2.20;;;;;;;15.74;75.57;99659.48;108351;1283;21986;-62
2023/04/21 10:02:35;;;;;;;8.20;3.00;;;;;;;15.80;75.43;99661.52;108318;1284;22872;-63
2023/04/21 10:05:01;;;;;;;5.50;2.30;;;;;;;15.84;75.09;99661.18;108235;1284;21989;-62
2023/04/21 10:07:27;;;;;;;10.00;3.10;;;;;;;15.88;74.57;99662.98;108300;1283;21996;-62
2023/04/21 10:09:57;;;;;;;9.30;1.80;;;;;;;15.92;74.53;99659.24;108309;1283;21985;-62
2023/04/21 10:12:23;;;;;;;5.20;1.80;;;;;;;15.97;73.98;99661.15;108297;1284;21985;-60
2023/04/21 10:14:52;;;;;;;6.80;1.90;;;;;;;15.93;74.14;99664.52;108351;1283;21986;-61
2023/04/21 10:17:17;;;;;;;5.70;2.00;;;;;;;15.89;74.03;99664.88;108373;1283;21991;-62
2023/04/21 10:19:51;;;;;;;8.00;1.80;;;;;;;15.86;74.22;99667.31;108283;1283;21989;-62
2023/04/21 10:22:30;;;;;;;8.10;1.70;;;;;;;15.81;74.24;99667.69;108356;1284;23599;-61
2023/04/21 10:24:56;;;;;;;6.10;1.90;;;;;;;15.79;74.33;99668.66;108354;1283;21994;-61
2023/04/21 10:27:35;;;;;;;10.00;1.70;;;;;;;15.75;74.43;99671.50;108275;1283;21980;-62
2023/04/21 10:30:20;;;;;;;8.90;2.80;;;;;;;15.76;74.48;99670.91;108379;1283;23631;-61
2023/04/21 10:32:45;;;;;;;7.10;1.50;;;;;;;15.83;75.35;99672.38;108105;1283;23612;-61
2023/04/21 10:35:16;;;;;;;6.30;1.70;;;;;;;15.86;74.95;99674.01;108102;1283;21992;-62
2023/04/21 10:37:42;;;;;;;4.30;1.70;;;;;;;15.90;74.83;99677.22;108292;1283;22034;-62
2023/04/21 10:40:29;;;;;;;9.40;1.70;;;;;;;15.88;74.46;99676.95;108288;1283;22014;-62
2023/04/21 10:42:55;;;;;;;4.90;1.50;;;;;;;15.84;74.26;99675.52;108299;1283;21982;-62
2023/04/21 10:45:24;;;;;;;6.40;1.80;;;;;;;15.82;74.07;99674.34;108366;1284;21986;-62
2023/04/21 10:47:51;;;;;;;5.10;1.90;;;;;;;15.86;74.31;99674.73;108434;1283;21998;-62
2023/04/21 10:50:26;;;;;;;5.80;1.50;;;;;;;15.83;74.15;99673.61;108375;1283;21986;-62
2023/04/21 10:53:10;;;;;;;5.20;1.30;;;;;;;15.82;73.93;99679.15;108375;1284;23708;-61
2023/04/21 10:55:36;;;;;;;6.20;1.20;;;;;;;15.80;73.84;99680.61;108331;1283;21985;-61
2023/04/21 10:58:03;;;;;;;9.00;2.10;;;;;;;15.82;74.21;99680.72;108269;1283;23772;-62
2023/04/21 11:00:29;;;;;;;5.30;2.20;;;;;;;15.87;74.01;99683.36;108356;1283;21985;-60
2023/04/21 11:02:56;;;;;;;12.20;2.50;;;;;;;15.88;73.71;99685.06;108344;1284;22026;-62
2023/04/21 11:05:48;;;;;;;11.10;2.20;;;;;;;15.88;73.24;99687.74;108317;1283;23044;-62
2023/04/21 11:08:14;;;;;;;5.00;1.50;;;;;;;15.87;72.78;99687.97;108273;1283;22043;-60
2023/04/21 11:10:44;;;;;;;11.20;1.90;;;;;;;15.91;73.78;99683.89;108330;1284;22034;-62
2023/04/21 11:13:10;;;;;;;4.80;1.40;;;;;;;15.98;73.99;99683.20;108325;1283;21989;-62
2023/04/21 11:15:36;;;;;;;4.20;1.40;;;;;;;16.07;74.17;99684.79;108371;1283;22008;-60
2023/04/21 11:18:02;;;;;;;4.60;1.50;;;;;;;16.11;73.49;99683.71;108316;1283;21986;-61
2023/04/21 11:20:27;;;;;;;6.80;1.20;;;;;;;16.08;72.07;99685.26;108321;1283;22008;-62
2023/04/21 11:22:55;;;;;;;5.40;1.50;;;;;;;16.05;71.75;99688.36;108170;1283;21986;-62